createdAt,value
2022-08-05T00:02:11.544Z,100778.96
2022-08-05T00:04:40.265Z,100777.83
2022-08-05T00:07:32.108Z,100774.25
2022-08-05T00:09:54.913Z,100772.59
2022-08-05T00:12:22.083Z,100775.38
2022-08-05T00:14:51.715Z,100776.52
2022-08-05T00:17:19.434Z,100771.41
2022-08-05T00:20:02.187Z,100766.45
2022-08-05T00:22:30.921Z,100764.95
2022-08-05T00:24:58.172Z,100764.55
2022-08-05T00:27:28.655Z,100763.23
2022-08-05T00:30:04.998Z,100763.02
2022-08-05T00:32:38.833Z,100762.67
2022-08-05T00:35:08.304Z,100764.47
2022-08-05T00:37:52.408Z,100761.27
2022-08-05T00:40:27.252Z,100762.81
2022-08-05T00:42:55.104Z,100763.04
2022-08-05T00:45:24.968Z,100765.78
2022-08-05T00:48:06.200Z,100761.35
2022-08-05T00:50:34.349Z,100759.30
2022-08-05T00:53:02.945Z,100759.02
2022-08-05T00:55:42.531Z,100758.98
2022-08-05T00:58:17.040Z,100758.10
2022-08-05T01:00:46.819Z,100757.13
2022-08-05T01:03:22.298Z,100756.56
2022-08-05T01:05:51.626Z,100759.48
2022-08-05T01:08:40.662Z,100761.13
2022-08-05T01:11:33.339Z,100764.54
2022-08-05T01:14:28.297Z,100758.88
2022-08-05T01:17:04.673Z,100763.70
2022-08-05T01:20:02.369Z,100761.94
2022-08-05T01:22:35.776Z,100760.24
2022-08-05T01:25:40.935Z,100759.30
2022-08-05T01:28:33.016Z,100757.27
2022-08-05T01:31:22.622Z,100758.11
2022-08-05T01:33:53.833Z,100759.48
2022-08-05T01:36:28.414Z,100754.15
2022-08-05T01:38:56.381Z,100754.91
2022-08-05T01:41:28.197Z,100754.25
2022-08-05T01:43:55.962Z,100756.55
2022-08-05T01:46:42.099Z,100754.30
2022-08-05T01:49:23.987Z,100750.63
2022-08-05T01:51:59.386Z,100757.30
2022-08-05T01:54:33.616Z,100753.48
2022-08-05T01:58:10.130Z,100752.58
2022-08-05T01:59:48.714Z,100753.17
2022-08-05T02:02:16.175Z,100753.05
2022-08-05T02:04:46.149Z,100754.84
2022-08-05T02:07:22.008Z,100756.44
2022-08-05T02:09:51.171Z,100760.36
2022-08-05T02:12:38.919Z,100756.63
2022-08-05T02:15:21.321Z,100756.05
2022-08-05T02:18:32.993Z,100758.31
2022-08-05T02:20:44.693Z,100760.51
2022-08-05T02:23:14.132Z,100761.55
2022-08-05T02:25:50.031Z,100760.11
2022-08-05T02:28:29.237Z,100761.63
2022-08-05T02:31:00.618Z,100764.34
2022-08-05T02:33:38.617Z,100764.38
2022-08-05T02:36:13.515Z,100770.30
2022-08-05T02:38:45.176Z,100770.37
2022-08-05T02:41:22.977Z,100777.21
2022-08-05T02:44:02.443Z,100775.32
2022-08-05T02:46:36.243Z,100776.05
2022-08-05T02:49:21.926Z,100779.36
2022-08-05T02:52:04.431Z,100781.19
2022-08-05T02:54:36.127Z,100788.88
2022-08-05T02:57:10.230Z,100792.25
2022-08-05T02:59:55.834Z,100790.28
2022-08-05T03:02:27.583Z,100791.63
2022-08-05T03:04:55.666Z,100790.92
2022-08-05T03:07:59.435Z,100789.92
2022-08-05T03:10:10.461Z,100789.24
2022-08-05T03:12:41.246Z,100792.36
2022-08-05T03:15:10.064Z,100789.98
2022-08-05T03:17:41.484Z,100795.85
2022-08-05T03:20:10.426Z,100790.41
2022-08-05T03:22:37.997Z,100798.31
2022-08-05T03:26:02.630Z,100805.77
2022-08-05T03:28:00.507Z,100804.77
2022-08-05T03:30:33.437Z,100804.11
2022-08-05T03:33:05.728Z,100804.08
2022-08-05T03:35:33.684Z,100802.55
2022-08-05T03:38:02.924Z,100804.20
2022-08-05T03:40:32.059Z,100805.70
2022-08-05T03:43:01.398Z,100808.75
2022-08-05T03:45:57.234Z,100807.48
2022-08-05T03:48:21.980Z,100808.28
2022-08-05T03:52:35.211Z,100807.01
2022-08-05T03:55:34.753Z,100806.58
2022-08-05T03:56:42.547Z,100805.87
2022-08-05T03:59:11.108Z,100805.50
2022-08-05T04:01:40.892Z,100811.10
2022-08-05T04:04:10.565Z,100813.08
2022-08-05T04:06:38.182Z,100807.83
2022-08-05T04:09:15.336Z,100813.79
2022-08-05T04:11:52.484Z,100814.86
2022-08-05T04:14:29.993Z,100813.64
2022-08-05T04:17:00.088Z,100816.45
2022-08-05T04:19:30.328Z,100816.54
2022-08-05T04:22:10.039Z,100819.59
2022-08-05T04:24:44.287Z,100821.83
2022-08-05T04:27:15.420Z,100818.23
2022-08-05T04:29:42.898Z,100819.92
2022-08-05T04:32:10.044Z,100821.02
2022-08-05T04:34:43.035Z,100820.63
2022-08-05T04:37:10.585Z,100818.50
2022-08-05T04:39:39.161Z,100816.30
2022-08-05T04:42:07.898Z,100815.21
2022-08-05T04:44:36.340Z,100815.61
2022-08-05T04:47:09.293Z,100811.39
2022-08-05T04:50:01.308Z,100812.02
2022-08-05T04:52:27.653Z,100810.91
2022-08-05T04:54:56.946Z,100811.16
2022-08-05T04:57:28.975Z,100809.07
2022-08-05T04:59:58.573Z,100808.98
2022-08-05T05:02:41.172Z,100811.37
2022-08-05T05:05:26.376Z,100810.02
2022-08-05T05:08:03.746Z,100814.85
2022-08-05T05:10:33.246Z,100807.10
2022-08-05T05:13:03.786Z,100807.83
2022-08-05T05:15:56.688Z,100807.51
2022-08-05T05:18:31.527Z,100808.16
2022-08-05T05:21:02.383Z,100803.17
2022-08-05T05:23:39.339Z,100800.40
2022-08-05T05:26:18.245Z,100805.27
2022-08-05T05:28:45.723Z,100803.48
2022-08-05T05:31:13.120Z,100798.06
2022-08-05T05:33:58.734Z,100799.23
2022-08-05T05:36:28.652Z,100799.23
2022-08-05T05:38:57.546Z,100797.85
2022-08-05T05:41:40.832Z,100798.52
2022-08-05T05:44:26.979Z,100798.30
2022-08-05T05:46:56.385Z,100802.10
2022-08-05T05:49:26.577Z,100803.23
2022-08-05T05:51:54.636Z,100806.38
2022-08-05T05:54:22.165Z,100806.24
2022-08-05T05:57:13.406Z,100804.96
2022-08-05T05:59:42.611Z,100804.89
2022-08-05T06:02:10.702Z,100802.42
2022-08-05T06:04:38.206Z,100806.52
2022-08-05T06:07:05.619Z,100806.33
2022-08-05T06:09:50.173Z,100806.76
2022-08-05T06:12:42.143Z,100808.77
2022-08-05T06:15:23.600Z,100811.65
2022-08-05T06:17:53.489Z,100807.63
2022-08-05T06:20:21.961Z,100807.40
2022-08-05T06:22:50.389Z,100806.95
2022-08-05T06:25:59.192Z,100806.34
2022-08-05T06:28:10.757Z,100808.23
2022-08-05T06:30:48.519Z,100811.20
2022-08-05T06:33:19.305Z,100812.94
2022-08-05T06:36:05.646Z,100812.48
2022-08-05T06:38:37.271Z,100813.57
2022-08-05T06:41:07.944Z,100815.13
2022-08-05T06:43:58.489Z,100817.69
2022-08-05T06:46:29.925Z,100814.73
2022-08-05T06:49:00.894Z,100814.23
2022-08-05T06:51:31.030Z,100811.11
2022-08-05T06:53:59.663Z,100808.14
2022-08-05T06:56:28.175Z,100809.01
2022-08-05T06:58:55.788Z,100805.64
2022-08-05T07:01:23.839Z,100809.56
2022-08-05T07:03:59.996Z,100803.55
2022-08-05T07:06:28.611Z,100803.64
2022-08-05T07:08:56.265Z,100807.43
2022-08-05T07:11:29.048Z,100805.11
2022-08-05T07:14:20.379Z,100809.69
2022-08-05T07:17:58.471Z,100809.83
2022-08-05T07:22:29.784Z,100807.29
2022-08-05T07:24:59.432Z,100811.52
2022-08-05T07:27:27.566Z,100812.71
2022-08-05T07:30:25.408Z,100811.52
2022-08-05T07:32:55.632Z,100807.92
2022-08-05T07:36:02.373Z,100812.64
2022-08-05T07:38:32.250Z,100813.06
2022-08-05T07:41:04.459Z,100807.67
2022-08-05T07:43:48.014Z,100805.88
2022-08-05T07:46:24.736Z,100811.00
2022-08-05T07:49:01.711Z,100818.28
2022-08-05T07:51:41.008Z,100813.76
2022-08-05T07:54:26.487Z,100812.02
2022-08-05T07:57:14.043Z,100814.48
2022-08-05T07:59:42.209Z,100817.13
2022-08-05T08:02:16.253Z,100816.58
2022-08-05T08:04:46.732Z,100820.70
2022-08-05T08:07:15.093Z,100818.53
2022-08-05T08:09:43.904Z,100823.05
2022-08-05T08:12:35.673Z,100819.33
2022-08-05T08:15:02.402Z,100818.54
2022-08-05T08:17:32.185Z,100815.08
2022-08-05T08:20:22.391Z,100814.91
2022-08-05T08:22:57.917Z,100816.70
2022-08-05T08:25:27.059Z,100817.29
2022-08-05T08:28:18.484Z,100813.88
2022-08-05T08:31:01.060Z,100812.33
2022-08-05T08:33:28.311Z,100812.73
2022-08-05T08:36:29.647Z,100813.07
2022-08-05T08:38:42.985Z,100812.30
2022-08-05T08:41:20.574Z,100814.14
2022-08-05T08:45:22.975Z,100802.44
2022-08-05T08:46:41.605Z,100799.47
2022-08-05T08:50:13.230Z,100803.90
2022-08-05T08:52:05.977Z,100798.85
2022-08-05T08:54:42.270Z,100797.30
2022-08-05T08:57:11.195Z,100794.82
2022-08-05T08:59:39.228Z,100801.21
2022-08-05T09:02:09.466Z,100806.90
2022-08-05T09:04:58.291Z,100802.57
2022-08-05T09:07:28.515Z,100801.05
2022-08-05T09:09:56.892Z,100795.92
2022-08-05T09:12:27.730Z,100793.42
2022-08-05T09:14:58.583Z,100792.62
2022-08-05T09:17:42.673Z,100788.58
2022-08-05T09:20:21.029Z,100788.45
2022-08-05T09:23:18.646Z,100787.39
2022-08-05T09:26:01.668Z,100782.31
2022-08-05T09:28:33.431Z,100783.23
2022-08-05T09:31:22.093Z,100780.94
2022-08-05T09:34:01.531Z,100787.42
2022-08-05T09:36:45.802Z,100793.01
2022-08-05T09:39:41.880Z,100792.45
2022-08-05T09:42:13.597Z,100790.77
2022-08-05T09:44:51.357Z,100793.38
2022-08-05T09:47:23.713Z,100794.96
2022-08-05T09:50:02.073Z,100792.45
2022-08-05T09:52:31.529Z,100791.79
2022-08-05T09:55:06.299Z,100797.02
2022-08-05T09:57:49.684Z,100804.11
2022-08-05T10:00:26.606Z,100801.97
2022-08-05T10:02:55.022Z,100799.58
2022-08-05T10:05:28.106Z,100792.37
2022-08-05T10:08:36.744Z,100787.36
2022-08-05T10:10:54.601Z,100780.33
2022-08-05T10:13:47.835Z,100774.48
2022-08-05T10:16:41.981Z,100774.70
2022-08-05T10:19:23.427Z,100780.67
2022-08-05T10:21:59.584Z,100784.45
2022-08-05T10:24:27.235Z,100784.51
2022-08-05T10:27:00.581Z,100788.92
2022-08-05T10:30:42.002Z,100788.24
2022-08-05T10:32:54.431Z,100796.20
2022-08-05T10:35:05.085Z,100795.02
2022-08-05T10:37:41.313Z,100805.63
2022-08-05T10:40:44.894Z,100809.81
2022-08-05T10:43:37.537Z,100819.14
2022-08-05T10:46:08.011Z,100816.94
2022-08-05T10:48:56.813Z,100812.36
2022-08-05T10:51:29.035Z,100806.11
2022-08-05T10:54:01.058Z,100804.64
2022-08-05T10:56:44.346Z,100809.54
2022-08-05T11:00:02.988Z,100812.65
2022-08-05T11:02:14.006Z,100808.54
2022-08-05T11:04:46.277Z,100811.88
2022-08-05T11:07:19.424Z,100810.08
2022-08-05T11:10:09.481Z,100809.90
2022-08-05T11:12:41.104Z,100803.05
2022-08-05T11:15:20.643Z,100806.24
2022-08-05T11:17:59.717Z,100801.28
2022-08-05T11:20:34.617Z,100800.44
2022-08-05T11:23:33.312Z,100801.16
2022-08-05T11:26:11.321Z,100794.98
2022-08-05T11:28:44.496Z,100789.86
2022-08-05T11:31:11.764Z,100783.49
2022-08-05T11:33:48.020Z,100780.40
2022-08-05T11:36:34.328Z,100775.34
2022-08-05T11:39:09.680Z,100771.55
2022-08-05T11:42:00.669Z,100770.04
2022-08-05T11:44:53.220Z,100763.55
2022-08-05T11:47:19.953Z,100766.05
2022-08-05T11:49:56.546Z,100760.17
2022-08-05T11:52:29.702Z,100766.03
2022-08-05T11:55:07.153Z,100765.14
2022-08-05T11:58:08.205Z,100762.73
2022-08-05T12:00:27.628Z,100760.02
2022-08-05T12:02:56.569Z,100759.19
2022-08-05T12:05:32.263Z,100759.20
2022-08-05T12:08:11.260Z,100759.98
2022-08-05T12:10:45.019Z,100757.29
2022-08-05T12:14:43.269Z,100750.00
2022-08-05T12:18:10.140Z,100749.10
2022-08-05T12:20:25.538Z,100745.00
2022-08-05T12:22:51.766Z,100743.02
2022-08-05T12:25:19.104Z,100739.35
2022-08-05T12:27:53.199Z,100737.88
2022-08-05T12:30:22.818Z,100741.73
2022-08-05T12:33:07.355Z,100738.61
2022-08-05T12:35:46.754Z,100735.41
2022-08-05T12:38:15.310Z,100737.27
2022-08-05T12:40:44.155Z,100736.90
2022-08-05T12:43:11.929Z,100735.25
2022-08-05T12:45:52.505Z,100736.69
2022-08-05T12:48:32.473Z,100738.27
2022-08-05T12:52:09.971Z,100736.67
2022-08-05T12:54:14.699Z,100736.02
2022-08-05T12:56:47.993Z,100728.02
2022-08-05T12:59:27.358Z,100724.94
2022-08-05T13:02:07.458Z,100718.27
2022-08-05T13:04:41.842Z,100720.61
2022-08-05T13:07:56.007Z,100719.02
2022-08-05T13:10:13.065Z,100710.94
2022-08-05T13:12:42.585Z,100706.80
2022-08-05T13:15:24.383Z,100707.16
2022-08-05T13:18:05.136Z,100702.09
2022-08-05T13:20:35.604Z,100703.95
2022-08-05T13:23:08.045Z,100705.92
2022-08-05T13:25:51.629Z,100704.41
2022-08-05T13:28:25.542Z,100712.34
2022-08-05T13:30:53.457Z,100715.24
2022-08-05T13:34:25.160Z,100721.94
2022-08-05T13:36:11.373Z,100728.88
2022-08-05T13:38:43.073Z,100729.32
2022-08-05T13:41:11.797Z,100726.63
2022-08-05T13:43:45.197Z,100723.48
2022-08-05T13:46:43.652Z,100722.60
2022-08-05T13:49:13.241Z,100725.70
2022-08-05T13:51:46.513Z,100728.84
2022-08-05T13:54:16.239Z,100730.23
2022-08-05T13:56:50.365Z,100732.45
2022-08-05T13:59:24.106Z,100733.77
2022-08-05T14:01:57.911Z,100734.54
2022-08-05T14:04:49.888Z,100734.14
2022-08-05T14:07:26.538Z,100724.61
2022-08-05T14:10:10.620Z,100726.63
2022-08-05T14:12:39.291Z,100729.73
2022-08-05T14:16:08.019Z,100724.80
2022-08-05T14:17:59.462Z,100720.59
2022-08-05T14:20:28.516Z,100722.64
2022-08-05T14:22:56.074Z,100724.66
2022-08-05T14:25:28.160Z,100720.52
2022-08-05T14:27:56.418Z,100717.29
2022-08-05T14:30:28.081Z,100717.44
2022-08-05T14:32:56.746Z,100717.58
2022-08-05T14:35:36.325Z,100716.91
2022-08-05T14:38:04.957Z,100707.36
2022-08-05T14:40:32.487Z,100709.25
2022-08-05T14:43:01.546Z,100711.54
2022-08-05T14:45:28.867Z,100711.41
2022-08-05T14:48:05.379Z,100710.77
2022-08-05T14:50:39.712Z,100710.42
2022-08-05T14:53:07.890Z,100709.09
2022-08-05T14:55:39.556Z,100710.30
2022-08-05T14:58:11.296Z,100711.55
2022-08-05T15:00:59.432Z,100709.84
2022-08-05T15:03:33.117Z,100710.70
2022-08-05T15:06:13.115Z,100710.27
2022-08-05T15:08:57.983Z,100711.18
2022-08-05T15:11:50.994Z,100710.39
2022-08-05T15:14:34.222Z,100704.92
2022-08-05T15:17:45.580Z,100699.36
2022-08-05T15:20:17.082Z,100700.70
2022-08-05T15:22:54.073Z,100697.27
2022-08-05T15:25:51.078Z,100696.71
2022-08-05T15:28:14.395Z,100693.59
2022-08-05T15:30:43.790Z,100694.48
2022-08-05T15:33:56.874Z,100694.33
2022-08-05T15:36:06.007Z,100698.31
2022-08-05T15:38:44.845Z,100698.89
2022-08-05T15:41:21.949Z,100698.77
2022-08-05T15:43:54.508Z,100696.67
2022-08-05T15:46:25.028Z,100696.38
2022-08-05T15:49:00.643Z,100697.82
2022-08-05T15:52:03.746Z,100698.51
2022-08-05T15:54:18.166Z,100702.68
2022-08-05T15:56:45.465Z,100698.45
2022-08-05T15:59:19.897Z,100699.69
2022-08-05T16:01:52.508Z,100698.16
2022-08-05T16:04:25.463Z,100697.12
2022-08-05T16:06:55.762Z,100696.61
2022-08-05T16:09:24.374Z,100696.61
2022-08-05T16:11:54.039Z,100694.52
2022-08-05T16:14:22.661Z,100689.94
2022-08-05T16:16:50.183Z,100694.75
2022-08-05T16:19:19.185Z,100695.04
2022-08-05T16:22:05.502Z,100697.15
2022-08-05T16:24:39.536Z,100693.21
2022-08-05T16:27:09.246Z,100691.44
2022-08-05T16:29:37.619Z,100693.55
2022-08-05T16:32:09.687Z,100696.30
2022-08-05T16:34:39.254Z,100697.79
2022-08-05T16:38:00.433Z,100703.11
2022-08-05T16:40:06.424Z,100704.25
2022-08-05T16:42:36.020Z,100702.78
2022-08-05T16:46:04.034Z,100704.14
2022-08-05T16:47:58.492Z,100703.90
2022-08-05T16:50:29.898Z,100703.69
2022-08-05T16:53:01.667Z,100713.21
2022-08-05T16:55:46.788Z,100713.82
2022-08-05T16:58:14.795Z,100718.83
2022-08-05T17:00:48.095Z,100720.11
2022-08-05T17:03:20.063Z,100722.80
2022-08-05T17:05:54.034Z,100729.08
2022-08-05T17:08:33.364Z,100729.52
2022-08-05T17:11:04.234Z,100727.89
2022-08-05T17:13:37.884Z,100729.94
2022-08-05T17:16:30.258Z,100729.83
2022-08-05T17:18:56.596Z,100727.44
2022-08-05T17:21:24.089Z,100729.98
2022-08-05T17:24:04.899Z,100731.36
2022-08-05T17:26:36.938Z,100731.90
2022-08-05T17:29:09.783Z,100734.85
2022-08-05T17:31:41.410Z,100733.59
2022-08-05T17:34:30.017Z,100734.59
2022-08-05T17:37:00.610Z,100733.77
2022-08-05T17:39:33.593Z,100736.98
2022-08-05T17:42:28.495Z,100740.43
2022-08-05T17:44:51.101Z,100748.60
2022-08-05T17:47:22.170Z,100756.56
2022-08-05T17:49:52.007Z,100765.71
2022-08-05T17:52:32.800Z,100772.27
2022-08-05T17:55:00.731Z,100783.52
2022-08-05T17:57:30.538Z,100781.14
2022-08-05T18:00:03.458Z,100777.03
2022-08-05T18:02:34.213Z,100772.67
2022-08-05T18:05:06.924Z,100774.41
2022-08-05T18:07:41.414Z,100772.89
2022-08-05T18:10:13.989Z,100769.55
2022-08-05T18:12:48.622Z,100769.23
2022-08-05T18:15:16.440Z,100769.11
2022-08-05T18:18:00.393Z,100764.44
2022-08-05T18:20:32.627Z,100766.80
2022-08-05T18:23:12.014Z,100767.77
2022-08-05T18:25:45.262Z,100765.98
2022-08-05T18:28:17.770Z,100771.43
2022-08-05T18:30:51.031Z,100773.81
2022-08-05T18:33:22.658Z,100775.10
2022-08-05T18:36:03.556Z,100774.85
2022-08-05T18:38:36.395Z,100774.85
2022-08-05T18:41:54.290Z,100774.56
2022-08-05T18:43:52.082Z,100774.70
2022-08-05T18:46:19.812Z,100773.21
2022-08-05T18:48:53.845Z,100775.06
2022-08-05T18:52:06.597Z,100774.48
2022-08-05T18:54:30.962Z,100777.88
2022-08-05T18:57:00.929Z,100774.34
2022-08-05T18:59:43.995Z,100770.65
2022-08-05T19:02:26.728Z,100771.38
2022-08-05T19:05:02.073Z,100771.81
2022-08-05T19:07:45.388Z,100772.77
2022-08-05T19:10:15.271Z,100774.48
2022-08-05T19:12:43.258Z,100771.46
2022-08-05T19:15:57.648Z,100772.01
2022-08-05T19:18:09.739Z,100775.21
2022-08-05T19:20:41.764Z,100771.98
2022-08-05T19:24:05.771Z,100771.48
2022-08-05T19:26:02.937Z,100772.52
2022-08-05T19:28:34.852Z,100773.41
2022-08-05T19:31:06.079Z,100771.69
2022-08-05T19:33:36.815Z,100769.66
2022-08-05T19:36:09.020Z,100768.76
2022-08-05T19:38:36.746Z,100762.80
2022-08-05T19:41:07.303Z,100762.36
2022-08-05T19:44:05.862Z,100762.63
2022-08-05T19:46:29.567Z,100759.65
2022-08-05T19:49:01.227Z,100758.83
2022-08-05T19:52:04.525Z,100752.98
2022-08-05T19:54:26.777Z,100753.16
2022-08-05T19:56:59.761Z,100752.45
2022-08-05T20:00:00.511Z,100750.30
2022-08-05T20:02:17.696Z,100752.72
2022-08-05T20:04:48.234Z,100749.42
2022-08-05T20:07:15.906Z,100747.64
2022-08-05T20:10:11.642Z,100746.06
2022-08-05T20:12:48.357Z,100747.77
2022-08-05T20:15:48.735Z,100751.20
2022-08-05T20:18:10.873Z,100747.02
2022-08-05T20:20:55.818Z,100741.34
2022-08-05T20:23:44.481Z,100742.95
2022-08-05T20:26:16.462Z,100739.69
2022-08-05T20:28:49.886Z,100732.92
2022-08-05T20:31:21.534Z,100732.73
2022-08-05T20:33:51.338Z,100734.09
2022-08-05T20:36:18.971Z,100733.59
2022-08-05T20:38:53.686Z,100730.84
2022-08-05T20:41:27.436Z,100731.17
2022-08-05T20:44:17.184Z,100731.72
2022-08-05T20:46:48.086Z,100734.05
2022-08-05T20:49:15.337Z,100727.99
2022-08-05T20:51:53.441Z,100726.66
2022-08-05T20:54:22.326Z,100726.73
2022-08-05T20:56:49.757Z,100724.23
2022-08-05T20:59:26.645Z,100727.23
2022-08-05T21:01:56.549Z,100722.73
2022-08-05T21:04:27.008Z,100720.36
2022-08-05T21:06:55.797Z,100719.14
2022-08-05T21:09:23.175Z,100719.48
2022-08-05T21:12:09.788Z,100717.09
2022-08-05T21:14:39.205Z,100711.29
2022-08-05T21:17:06.762Z,100713.20
2022-08-05T21:19:47.042Z,100709.88
2022-08-05T21:22:21.746Z,100708.49
2022-08-05T21:24:51.590Z,100706.89
2022-08-05T21:27:25.347Z,100708.40
2022-08-05T21:29:56.242Z,100707.56
2022-08-05T21:32:27.765Z,100706.75
2022-08-05T21:35:17.525Z,100705.48
2022-08-05T21:37:52.781Z,100705.23
2022-08-05T21:40:23.114Z,100702.30
2022-08-05T21:42:51.980Z,100699.13
2022-08-05T21:45:26.574Z,100697.96
2022-08-05T21:48:08.502Z,100705.02
2022-08-05T21:50:37.268Z,100705.71
2022-08-05T21:53:16.347Z,100704.94
2022-08-05T21:56:05.667Z,100703.70
2022-08-05T21:58:32.854Z,100700.92
2022-08-05T22:01:00.167Z,100694.94
2022-08-05T22:03:48.727Z,100693.27
2022-08-05T22:06:22.582Z,100694.52
2022-08-05T22:08:52.415Z,100696.46
2022-08-05T22:11:34.389Z,100701.80
2022-08-05T22:14:06.460Z,100699.38
2022-08-05T22:16:53.162Z,100697.15
2022-08-05T22:20:01.749Z,100700.55
2022-08-05T22:22:12.444Z,100701.45
2022-08-05T22:25:01.485Z,100702.92
2022-08-05T22:28:11.025Z,100700.52
2022-08-05T22:30:32.195Z,100697.23
2022-08-05T22:33:02.553Z,100696.55
2022-08-05T22:35:48.161Z,100695.56
2022-08-05T22:38:19.677Z,100698.52
2022-08-05T22:40:50.087Z,100695.05
2022-08-05T22:43:36.944Z,100689.59
2022-08-05T22:46:13.390Z,100685.88
2022-08-05T22:48:42.219Z,100684.55
2022-08-05T22:51:16.004Z,100689.87
2022-08-05T22:53:51.830Z,100692.50
2022-08-05T22:56:30.463Z,100689.61
2022-08-05T22:59:02.952Z,100687.90
2022-08-05T23:01:50.778Z,100685.59
2022-08-05T23:04:19.308Z,100682.75
2022-08-05T23:06:47.758Z,100682.48
2022-08-05T23:09:27.980Z,100681.19
2022-08-05T23:12:02.600Z,100679.27
2022-08-05T23:14:32.110Z,100681.04
2022-08-05T23:17:24.221Z,100685.58
2022-08-05T23:20:00.681Z,100683.78
2022-08-05T23:22:30.958Z,100681.95
2022-08-05T23:24:59.163Z,100681.54
2022-08-05T23:27:28.882Z,100685.14
2022-08-05T23:30:01.024Z,100686.29
2022-08-05T23:32:28.819Z,100691.04
2022-08-05T23:34:56.757Z,100693.17
2022-08-05T23:37:23.945Z,100690.14
2022-08-05T23:39:54.920Z,100684.30
2022-08-05T23:42:23.399Z,100674.52
2022-08-05T23:44:57.296Z,100679.52
2022-08-05T23:47:25.210Z,100682.13
2022-08-05T23:49:55.648Z,100691.46
2022-08-05T23:52:27.828Z,100692.98
2022-08-05T23:54:57.150Z,100685.23
2022-08-05T23:57:28.341Z,100687.70
